sensor_id;sensor_type;location;lat;lon;timestamp;temperature;humidity
41668;DHT22;27356;50.920;5.350;2023-04-25T00:01:14;9.00;99.90
41668;DHT22;27356;50.920;5.350;2023-04-25T00:03:40;9.10;99.90
41668;DHT22;27356;50.920;5.350;2023-04-25T00:06:07;9.20;99.90
41668;DHT22;27356;50.920;5.350;2023-04-25T00:08:33;9.10;99.90
41668;DHT22;27356;50.920;5.350;2023-04-25T00:11:01;9.10;99.90
41668;DHT22;27356;50.920;5.350;2023-04-25T00:13:27;9.20;99.90
41668;DHT22;27356;50.920;5.350;2023-04-25T00:15:52;9.00;99.90
41668;DHT22;27356;50.920;5.350;2023-04-25T00:18:19;9.10;99.90
41668;DHT22;27356;50.920;5.350;2023-04-25T00:20:45;9.00;99.90
41668;DHT22;27356;50.920;5.350;2023-04-25T00:23:18;9.10;99.90
41668;DHT22;27356;50.920;5.350;2023-04-25T00:25:44;9.10;99.90
41668;DHT22;27356;50.920;5.350;2023-04-25T00:28:12;9.10;99.90
41668;DHT22;27356;50.920;5.350;2023-04-25T00:30:38;9.00;99.90
41668;DHT22;27356;50.920;5.350;2023-04-25T00:33:04;9.20;99.90
41668;DHT22;27356;50.920;5.350;2023-04-25T00:35:30;9.10;99.90
41668;DHT22;27356;50.920;5.350;2023-04-25T00:37:56;9.10;99.90
41668;DHT22;27356;50.920;5.350;2023-04-25T00:40:22;9.20;99.90
41668;DHT22;27356;50.920;5.350;2023-04-25T00:42:47;9.20;99.90
41668;DHT22;27356;50.920;5.350;2023-04-25T00:45:14;9.10;99.90
41668;DHT22;27356;50.920;5.350;2023-04-25T00:47:41;9.20;99.90
41668;DHT22;27356;50.920;5.350;2023-04-25T00:50:08;9.10;99.90
41668;DHT22;27356;50.920;5.350;2023-04-25T00:52:34;9.10;99.90
41668;DHT22;27356;50.920;5.350;2023-04-25T00:55:00;9.00;99.90
41668;DHT22;27356;50.920;5.350;2023-04-25T00:57:26;9.10;99.90
41668;DHT22;27356;50.920;5.350;2023-04-25T00:59:53;9.10;99.90
41668;DHT22;27356;50.920;5.350;2023-04-25T01:02:19;9.00;99.90
41668;DHT22;27356;50.920;5.350;2023-04-25T01:04:46;9.00;99.90
41668;DHT22;27356;50.920;5.350;2023-04-25T01:07:12;9.10;99.90
41668;DHT22;27356;50.920;5.350;2023-04-25T01:09:39;9.00;99.90
41668;DHT22;27356;50.920;5.350;2023-04-25T01:12:05;9.00;99.90
41668;DHT22;27356;50.920;5.350;2023-04-25T01:14:31;9.00;99.90
41668;DHT22;27356;50.920;5.350;2023-04-25T01:16:56;9.00;99.90
41668;DHT22;27356;50.920;5.350;2023-04-25T01:19:23;9.00;99.90
41668;DHT22;27356;50.920;5.350;2023-04-25T01:21:49;8.90;99.90
41668;DHT22;27356;50.920;5.350;2023-04-25T01:24:15;8.80;99.90
41668;DHT22;27356;50.920;5.350;2023-04-25T01:26:42;8.90;99.90
41668;DHT22;27356;50.920;5.350;2023-04-25T01:29:19;9.00;99.90
41668;DHT22;27356;50.920;5.350;2023-04-25T01:31:45;9.00;99.90
41668;DHT22;27356;50.920;5.350;2023-04-25T01:34:11;9.00;99.90
41668;DHT22;27356;50.920;5.350;2023-04-25T01:36:37;9.00;99.90
41668;DHT22;27356;50.920;5.350;2023-04-25T01:39:03;9.00;99.90
41668;DHT22;27356;50.920;5.350;2023-04-25T01:41:30;8.90;99.90
41668;DHT22;27356;50.920;5.350;2023-04-25T01:43:56;8.80;99.90
41668;DHT22;27356;50.920;5.350;2023-04-25T01:46:21;8.70;99.90
41668;DHT22;27356;50.920;5.350;2023-04-25T01:48:47;8.70;99.90
41668;DHT22;27356;50.920;5.350;2023-04-25T01:51:13;8.70;99.90
41668;DHT22;27356;50.920;5.350;2023-04-25T01:53:40;8.70;99.90
41668;DHT22;27356;50.920;5.350;2023-04-25T01:56:06;8.80;99.90
41668;DHT22;27356;50.920;5.350;2023-04-25T01:58:32;8.80;99.90
41668;DHT22;27356;50.920;5.350;2023-04-25T02:00:58;8.70;99.90
41668;DHT22;27356;50.920;5.350;2023-04-25T02:03:23;8.80;99.90
41668;DHT22;27356;50.920;5.350;2023-04-25T02:05:49;8.70;99.90
41668;DHT22;27356;50.920;5.350;2023-04-25T02:08:16;8.70;99.90
41668;DHT22;27356;50.920;5.350;2023-04-25T02:10:42;8.60;99.90
41668;DHT22;27356;50.920;5.350;2023-04-25T02:13:08;8.50;99.90
41668;DHT22;27356;50.920;5.350;2023-04-25T02:15:34;8.40;99.90
41668;DHT22;27356;50.920;5.350;2023-04-25T02:17:59;8.40;99.90
41668;DHT22;27356;50.920;5.350;2023-04-25T02:20:26;8.40;99.90
41668;DHT22;27356;50.920;5.350;2023-04-25T02:22:52;8.40;99.90
41668;DHT22;27356;50.920;5.350;2023-04-25T02:25:18;8.40;99.90
41668;DHT22;27356;50.920;5.350;2023-04-25T02:27:46;8.40;99.90
41668;DHT22;27356;50.920;5.350;2023-04-25T02:30:12;8.50;99.90
41668;DHT22;27356;50.920;5.350;2023-04-25T02:32:39;8.50;99.90
41668;DHT22;27356;50.920;5.350;2023-04-25T02:35:05;8.50;99.90
41668;DHT22;27356;50.920;5.350;2023-04-25T02:37:35;8.50;99.90
41668;DHT22;27356;50.920;5.350;2023-04-25T02:40:02;8.40;99.90
41668;DHT22;27356;50.920;5.350;2023-04-25T02:42:31;8.20;99.90
41668;DHT22;27356;50.920;5.350;2023-04-25T02:44:57;8.20;99.90
41668;DHT22;27356;50.920;5.350;2023-04-25T02:47:22;8.20;99.90
41668;DHT22;27356;50.920;5.350;2023-04-25T02:49:48;8.30;99.90
41668;DHT22;27356;50.920;5.350;2023-04-25T02:52:14;8.30;99.90
41668;DHT22;27356;50.920;5.350;2023-04-25T02:54:40;8.30;99.90
41668;DHT22;27356;50.920;5.350;2023-04-25T02:57:06;8.10;99.90
41668;DHT22;27356;50.920;5.350;2023-04-25T02:59:33;8.20;99.90
41668;DHT22;27356;50.920;5.350;2023-04-25T03:01:59;8.30;99.90
41668;DHT22;27356;50.920;5.350;2023-04-25T03:04:25;8.30;99.90
41668;DHT22;27356;50.920;5.350;2023-04-25T03:06:51;8.20;99.90
41668;DHT22;27356;50.920;5.350;2023-04-25T03:09:16;8.30;99.90
41668;DHT22;27356;50.920;5.350;2023-04-25T03:11:43;8.30;99.90
41668;DHT22;27356;50.920;5.350;2023-04-25T03:14:09;8.30;99.90
41668;DHT22;27356;50.920;5.350;2023-04-25T03:16:35;8.30;99.90
41668;DHT22;27356;50.920;5.350;2023-04-25T03:19:01;8.20;99.90
41668;DHT22;27356;50.920;5.350;2023-04-25T03:21:27;8.30;99.90
41668;DHT22;27356;50.920;5.350;2023-04-25T03:23:52;8.30;99.90
41668;DHT22;27356;50.920;5.350;2023-04-25T03:26:18;8.30;99.90
41668;DHT22;27356;50.920;5.350;2023-04-25T03:28:44;8.30;99.90
41668;DHT22;27356;50.920;5.350;2023-04-25T03:31:09;8.40;99.90
41668;DHT22;27356;50.920;5.350;2023-04-25T03:33:35;8.30;99.90
41668;DHT22;27356;50.920;5.350;2023-04-25T03:36:01;8.30;99.90
41668;DHT22;27356;50.920;5.350;2023-04-25T03:38:26;8.30;99.90
41668;DHT22;27356;50.920;5.350;2023-04-25T03:40:52;8.30;99.90
41668;DHT22;27356;50.920;5.350;2023-04-25T03:43:18;8.30;99.90
41668;DHT22;27356;50.920;5.350;2023-04-25T03:45:44;8.30;99.90
41668;DHT22;27356;50.920;5.350;2023-04-25T03:48:09;8.10;99.90
41668;DHT22;27356;50.920;5.350;2023-04-25T03:50:35;8.10;99.90
41668;DHT22;27356;50.920;5.350;2023-04-25T03:53:01;8.10;99.90
41668;DHT22;27356;50.920;5.350;2023-04-25T03:55:26;8.00;99.90
41668;DHT22;27356;50.920;5.350;2023-04-25T03:57:52;8.00;99.90
41668;DHT22;27356;50.920;5.350;2023-04-25T04:00:18;8.00;99.90
41668;DHT22;27356;50.920;5.350;2023-04-25T04:02:43;7.90;99.90
41668;DHT22;27356;50.920;5.350;2023-04-25T04:05:09;7.90;99.90
41668;DHT22;27356;50.920;5.350;2023-04-25T04:07:35;7.90;99.90
41668;DHT22;27356;50.920;5.350;2023-04-25T04:10:06;7.80;99.90
41668;DHT22;27356;50.920;5.350;2023-04-25T04:12:32;7.80;99.90
41668;DHT22;27356;50.920;5.350;2023-04-25T04:14:57;7.80;99.90
41668;DHT22;27356;50.920;5.350;2023-04-25T04:17:23;7.70;99.90
41668;DHT22;27356;50.920;5.350;2023-04-25T04:19:49;7.80;99.90
41668;DHT22;27356;50.920;5.350;2023-04-25T04:22:15;7.70;99.90
41668;DHT22;27356;50.920;5.350;2023-04-25T04:24:41;7.60;99.90
41668;DHT22;27356;50.920;5.350;2023-04-25T04:27:09;7.60;99.90
41668;DHT22;27356;50.920;5.350;2023-04-25T04:29:35;7.40;99.90
41668;DHT22;27356;50.920;5.350;2023-04-25T04:32:02;7.30;99.90
41668;DHT22;27356;50.920;5.350;2023-04-25T04:34:28;7.40;99.90
41668;DHT22;27356;50.920;5.350;2023-04-25T04:36:54;7.20;99.90
41668;DHT22;27356;50.920;5.350;2023-04-25T04:39:20;7.30;99.90
41668;DHT22;27356;50.920;5.350;2023-04-25T04:41:46;7.30;99.90
41668;DHT22;27356;50.920;5.350;2023-04-25T04:44:12;7.30;99.90
41668;DHT22;27356;50.920;5.350;2023-04-25T04:46:39;7.30;99.90
41668;DHT22;27356;50.920;5.350;2023-04-25T04:49:06;7.30;99.90
41668;DHT22;27356;50.920;5.350;2023-04-25T04:51:31;7.40;99.90
41668;DHT22;27356;50.920;5.350;2023-04-25T04:53:58;7.30;99.90
41668;DHT22;27356;50.920;5.350;2023-04-25T04:56:28;7.40;99.90
41668;DHT22;27356;50.920;5.350;2023-04-25T04:58:54;7.60;99.90
41668;DHT22;27356;50.920;5.350;2023-04-25T05:01:20;7.60;99.90
41668;DHT22;27356;50.920;5.350;2023-04-25T05:03:47;7.60;99.90
41668;DHT22;27356;50.920;5.350;2023-04-25T05:06:13;7.70;99.90
41668;DHT22;27356;50.920;5.350;2023-04-25T05:08:38;7.80;99.90
41668;DHT22;27356;50.920;5.350;2023-04-25T05:11:05;7.90;99.90
41668;DHT22;27356;50.920;5.350;2023-04-25T05:13:30;7.90;99.90
41668;DHT22;27356;50.920;5.350;2023-04-25T05:15:56;7.90;99.90
41668;DHT22;27356;50.920;5.350;2023-04-25T05:18:22;8.00;99.90
41668;DHT22;27356;50.920;5.350;2023-04-25T05:20:47;8.00;99.90
41668;DHT22;27356;50.920;5.350;2023-04-25T05:23:13;8.10;99.90
41668;DHT22;27356;50.920;5.350;2023-04-25T05:25:39;8.00;99.90
41668;DHT22;27356;50.920;5.350;2023-04-25T05:28:04;8.00;99.90
41668;DHT22;27356;50.920;5.350;2023-04-25T05:30:31;8.10;99.90
41668;DHT22;27356;50.920;5.350;2023-04-25T05:32:59;8.20;99.90
41668;DHT22;27356;50.920;5.350;2023-04-25T05:35:27;8.20;99.90
41668;DHT22;27356;50.920;5.350;2023-04-25T05:37:53;8.20;99.90
41668;DHT22;27356;50.920;5.350;2023-04-25T05:40:19;8.40;99.90
41668;DHT22;27356;50.920;5.350;2023-04-25T05:42:44;8.50;99.90
41668;DHT22;27356;50.920;5.350;2023-04-25T05:45:10;8.60;99.90
41668;DHT22;27356;50.920;5.350;2023-04-25T05:47:36;8.70;99.90
41668;DHT22;27356;50.920;5.350;2023-04-25T05:50:01;8.70;99.90
41668;DHT22;27356;50.920;5.350;2023-04-25T05:52:27;8.70;99.90
41668;DHT22;27356;50.920;5.350;2023-04-25T05:54:53;8.70;99.90
41668;DHT22;27356;50.920;5.350;2023-04-25T05:57:27;8.80;99.90
41668;DHT22;27356;50.920;5.350;2023-04-25T05:59:53;8.90;99.90
41668;DHT22;27356;50.920;5.350;2023-04-25T06:02:20;9.00;99.90
41668;DHT22;27356;50.920;5.350;2023-04-25T06:04:48;8.90;99.90
41668;DHT22;27356;50.920;5.350;2023-04-25T06:07:14;9.00;99.90
41668;DHT22;27356;50.920;5.350;2023-04-25T06:09:40;9.10;99.90
41668;DHT22;27356;50.920;5.350;2023-04-25T06:12:06;8.80;99.90
41668;DHT22;27356;50.920;5.350;2023-04-25T06:14:33;8.70;99.90
41668;DHT22;27356;50.920;5.350;2023-04-25T06:16:59;8.80;99.90
41668;DHT22;27356;50.920;5.350;2023-04-25T06:19:25;8.90;99.90
41668;DHT22;27356;50.920;5.350;2023-04-25T06:21:50;8.90;99.90
41668;DHT22;27356;50.920;5.350;2023-04-25T06:24:16;9.10;99.90
41668;DHT22;27356;50.920;5.350;2023-04-25T06:26:42;9.30;99.90
41668;DHT22;27356;50.920;5.350;2023-04-25T06:29:07;9.30;99.90
41668;DHT22;27356;50.920;5.350;2023-04-25T06:31:33;9.40;99.90
41668;DHT22;27356;50.920;5.350;2023-04-25T06:33:59;9.60;99.90
41668;DHT22;27356;50.920;5.350;2023-04-25T06:36:24;9.80;99.90
41668;DHT22;27356;50.920;5.350;2023-04-25T06:38:51;10.00;99.90
41668;DHT22;27356;50.920;5.350;2023-04-25T06:41:20;10.00;99.90
41668;DHT22;27356;50.920;5.350;2023-04-25T06:43:46;10.20;99.90
41668;DHT22;27356;50.920;5.350;2023-04-25T06:46:12;10.40;99.90
41668;DHT22;27356;50.920;5.350;2023-04-25T06:48:37;10.60;99.90
41668;DHT22;27356;50.920;5.350;2023-04-25T06:51:03;10.70;99.90
41668;DHT22;27356;50.920;5.350;2023-04-25T06:53:29;11.00;99.90
41668;DHT22;27356;50.920;5.350;2023-04-25T06:55:55;11.10;99.90
41668;DHT22;27356;50.920;5.350;2023-04-25T06:58:21;11.20;99.90
41668;DHT22;27356;50.920;5.350;2023-04-25T07:00:46;11.10;99.90
41668;DHT22;27356;50.920;5.350;2023-04-25T07:03:12;11.10;99.90
41668;DHT22;27356;50.920;5.350;2023-04-25T07:05:38;11.00;99.90
41668;DHT22;27356;50.920;5.350;2023-04-25T07:08:03;11.00;99.90
41668;DHT22;27356;50.920;5.350;2023-04-25T07:10:29;11.00;99.90
41668;DHT22;27356;50.920;5.350;2023-04-25T07:12:55;11.10;99.90
41668;DHT22;27356;50.920;5.350;2023-04-25T07:15:21;11.10;99.90
41668;DHT22;27356;50.920;5.350;2023-04-25T07:17:46;11.00;99.90
41668;DHT22;27356;50.920;5.350;2023-04-25T07:20:12;11.00;99.90
41668;DHT22;27356;50.920;5.350;2023-04-25T07:22:38;11.30;99.90
41668;DHT22;27356;50.920;5.350;2023-04-25T07:25:04;11.30;99.90
41668;DHT22;27356;50.920;5.350;2023-04-25T07:27:31;11.30;99.90
41668;DHT22;27356;50.920;5.350;2023-04-25T07:29:57;11.10;99.90
41668;DHT22;27356;50.920;5.350;2023-04-25T07:32:23;11.40;99.90
41668;DHT22;27356;50.920;5.350;2023-04-25T07:34:48;12.00;99.90
41668;DHT22;27356;50.920;5.350;2023-04-25T07:37:14;12.60;99.90
41668;DHT22;27356;50.920;5.350;2023-04-25T07:39:40;12.70;99.90
41668;DHT22;27356;50.920;5.350;2023-04-25T07:42:06;13.00;99.90
41668;DHT22;27356;50.920;5.350;2023-04-25T07:44:34;12.60;99.90
41668;DHT22;27356;50.920;5.350;2023-04-25T07:47:05;12.50;99.30
41668;DHT22;27356;50.920;5.350;2023-04-25T07:49:35;12.50;99.40
41668;DHT22;27356;50.920;5.350;2023-04-25T07:52:02;12.30;99.90
41668;DHT22;27356;50.920;5.350;2023-04-25T07:54:28;12.40;99.90
41668;DHT22;27356;50.920;5.350;2023-04-25T07:56:54;12.40;99.90
41668;DHT22;27356;50.920;5.350;2023-04-25T07:59:20;12.60;98.50
41668;DHT22;27356;50.920;5.350;2023-04-25T08:01:45;12.80;97.70
41668;DHT22;27356;50.920;5.350;2023-04-25T08:04:11;12.40;97.70
41668;DHT22;27356;50.920;5.350;2023-04-25T08:06:37;12.40;97.10
41668;DHT22;27356;50.920;5.350;2023-04-25T08:09:03;12.30;98.10
41668;DHT22;27356;50.920;5.350;2023-04-25T08:11:29;12.70;98.20
41668;DHT22;27356;50.920;5.350;2023-04-25T08:13:55;12.50;96.70
41668;DHT22;27356;50.920;5.350;2023-04-25T08:16:21;12.40;97.60
41668;DHT22;27356;50.920;5.350;2023-04-25T08:18:47;12.60;96.70
41668;DHT22;27356;50.920;5.350;2023-04-25T08:21:13;12.80;96.70
41668;DHT22;27356;50.920;5.350;2023-04-25T08:23:39;13.20;95.60
41668;DHT22;27356;50.920;5.350;2023-04-25T08:26:05;12.90;95.40
41668;DHT22;27356;50.920;5.350;2023-04-25T08:28:31;12.90;94.60
41668;DHT22;27356;50.920;5.350;2023-04-25T08:30:57;12.70;95.40
41668;DHT22;27356;50.920;5.350;2023-04-25T08:33:22;13.00;94.00
41668;DHT22;27356;50.920;5.350;2023-04-25T08:35:48;12.80;94.30
41668;DHT22;27356;50.920;5.350;2023-04-25T08:38:14;13.00;94.50
41668;DHT22;27356;50.920;5.350;2023-04-25T08:40:40;12.70;94.20
41668;DHT22;27356;50.920;5.350;2023-04-25T08:43:07;12.90;94.30
41668;DHT22;27356;50.920;5.350;2023-04-25T08:45:39;13.10;94.30
41668;DHT22;27356;50.920;5.350;2023-04-25T08:48:13;12.90;94.30
41668;DHT22;27356;50.920;5.350;2023-04-25T08:50:59;12.90;94.70
41668;DHT22;27356;50.920;5.350;2023-04-25T08:53:28;12.90;95.00
41668;DHT22;27356;50.920;5.350;2023-04-25T08:55:56;12.50;94.70
41668;DHT22;27356;50.920;5.350;2023-04-25T08:58:23;12.20;95.90
41668;DHT22;27356;50.920;5.350;2023-04-25T09:00:49;12.20;94.90
41668;DHT22;27356;50.920;5.350;2023-04-25T09:03:16;12.10;95.20
41668;DHT22;27356;50.920;5.350;2023-04-25T09:05:42;12.00;95.50
41668;DHT22;27356;50.920;5.350;2023-04-25T09:08:07;12.30;95.20
41668;DHT22;27356;50.920;5.350;2023-04-25T09:10:34;12.40;94.40
41668;DHT22;27356;50.920;5.350;2023-04-25T09:13:10;12.50;95.10
41668;DHT22;27356;50.920;5.350;2023-04-25T09:15:53;12.70;96.10
41668;DHT22;27356;50.920;5.350;2023-04-25T09:18:26;13.00;95.80
41668;DHT22;27356;50.920;5.350;2023-04-25T09:21:05;13.20;95.60
41668;DHT22;27356;50.920;5.350;2023-04-25T09:23:39;13.40;95.30
41668;DHT22;27356;50.920;5.350;2023-04-25T09:26:07;13.30;93.30
41668;DHT22;27356;50.920;5.350;2023-04-25T09:28:33;12.90;94.60
41668;DHT22;27356;50.920;5.350;2023-04-25T09:31:00;13.10;95.40
41668;DHT22;27356;50.920;5.350;2023-04-25T09:33:33;13.20;94.20
41668;DHT22;27356;50.920;5.350;2023-04-25T09:36:09;13.20;94.50
41668;DHT22;27356;50.920;5.350;2023-04-25T09:38:44;14.30;94.50
41668;DHT22;27356;50.920;5.350;2023-04-25T09:41:11;15.50;91.80
41668;DHT22;27356;50.920;5.350;2023-04-25T09:43:37;15.90;91.90
41668;DHT22;27356;50.920;5.350;2023-04-25T09:46:10;16.60;91.00
41668;DHT22;27356;50.920;5.350;2023-04-25T09:48:37;18.00;89.30
41668;DHT22;27356;50.920;5.350;2023-04-25T09:51:10;17.80;84.60
41668;DHT22;27356;50.920;5.350;2023-04-25T09:53:46;17.90;83.60
41668;DHT22;27356;50.920;5.350;2023-04-25T09:56:15;17.70;84.20
41668;DHT22;27356;50.920;5.350;2023-04-25T09:58:42;17.70;80.80
41668;DHT22;27356;50.920;5.350;2023-04-25T10:01:09;17.40;81.70
41668;DHT22;27356;50.920;5.350;2023-04-25T10:03:37;16.60;81.40
41668;DHT22;27356;50.920;5.350;2023-04-25T10:06:19;16.00;84.40
41668;DHT22;27356;50.920;5.350;2023-04-25T10:08:45;15.90;83.70
41668;DHT22;27356;50.920;5.350;2023-04-25T10:11:15;16.00;83.40
41668;DHT22;27356;50.920;5.350;2023-04-25T10:13:41;15.80;82.20
41668;DHT22;27356;50.920;5.350;2023-04-25T10:16:08;15.50;82.70
41668;DHT22;27356;50.920;5.350;2023-04-25T10:18:34;15.10;83.00
41668;DHT22;27356;50.920;5.350;2023-04-25T10:21:02;15.00;86.30
41668;DHT22;27356;50.920;5.350;2023-04-25T10:23:31;15.10;85.00
41668;DHT22;27356;50.920;5.350;2023-04-25T10:25:57;15.00;86.10
41668;DHT22;27356;50.920;5.350;2023-04-25T10:28:24;15.10;84.40
41668;DHT22;27356;50.920;5.350;2023-04-25T10:31:00;15.30;84.10
41668;DHT22;27356;50.920;5.350;2023-04-25T10:33:34;15.00;84.70
41668;DHT22;27356;50.920;5.350;2023-04-25T10:36:09;14.90;85.80
41668;DHT22;27356;50.920;5.350;2023-04-25T10:38:37;14.40;89.90
41668;DHT22;27356;50.920;5.350;2023-04-25T10:41:07;14.30;90.50
41668;DHT22;27356;50.920;5.350;2023-04-25T10:43:39;13.70;90.50
41668;DHT22;27356;50.920;5.350;2023-04-25T10:46:21;13.60;91.70
41668;DHT22;27356;50.920;5.350;2023-04-25T10:48:48;13.50;91.60
41668;DHT22;27356;50.920;5.350;2023-04-25T10:53:45;13.90;90.40
41668;DHT22;27356;50.920;5.350;2023-04-25T10:56:21;14.10;90.60
41668;DHT22;27356;50.920;5.350;2023-04-25T10:58:48;14.20;85.00
41668;DHT22;27356;50.920;5.350;2023-04-25T11:01:19;14.20;84.60
41668;DHT22;27356;50.920;5.350;2023-04-25T11:03:45;14.00;84.40
41668;DHT22;27356;50.920;5.350;2023-04-25T11:09:03;14.60;85.60
41668;DHT22;27356;50.920;5.350;2023-04-25T11:11:36;14.70;84.30
41668;DHT22;27356;50.920;5.350;2023-04-25T11:14:02;14.90;82.20
41668;DHT22;27356;50.920;5.350;2023-04-25T11:16:28;14.70;80.90
41668;DHT22;27356;50.920;5.350;2023-04-25T11:18:56;15.30;80.40
41668;DHT22;27356;50.920;5.350;2023-04-25T11:21:22;15.60;76.40
41668;DHT22;27356;50.920;5.350;2023-04-25T11:23:48;15.10;76.90
41668;DHT22;27356;50.920;5.350;2023-04-25T11:26:14;15.10;76.30
41668;DHT22;27356;50.920;5.350;2023-04-25T11:28:40;15.20;77.00
41668;DHT22;27356;50.920;5.350;2023-04-25T11:31:10;15.30;76.30
41668;DHT22;27356;50.920;5.350;2023-04-25T11:33:35;15.10;77.10
41668;DHT22;27356;50.920;5.350;2023-04-25T11:36:01;15.10;78.00
41668;DHT22;27356;50.920;5.350;2023-04-25T11:38:28;15.40;78.30
41668;DHT22;27356;50.920;5.350;2023-04-25T11:40:53;15.20;79.80
41668;DHT22;27356;50.920;5.350;2023-04-25T11:43:21;15.00;77.20
41668;DHT22;27356;50.920;5.350;2023-04-25T11:45:49;14.40;77.80
41668;DHT22;27356;50.920;5.350;2023-04-25T11:48:15;14.10;79.50
41668;DHT22;27356;50.920;5.350;2023-04-25T11:50:41;13.80;80.90
41668;DHT22;27356;50.920;5.350;2023-04-25T11:53:07;13.70;79.50
41668;DHT22;27356;50.920;5.350;2023-04-25T11:55:33;13.50;80.40
41668;DHT22;27356;50.920;5.350;2023-04-25T11:58:00;13.10;79.70
41668;DHT22;27356;50.920;5.350;2023-04-25T12:00:27;12.90;80.40
41668;DHT22;27356;50.920;5.350;2023-04-25T12:02:54;12.60;80.10
41668;DHT22;27356;50.920;5.350;2023-04-25T12:05:21;12.30;82.50
41668;DHT22;27356;50.920;5.350;2023-04-25T12:07:48;12.40;82.20
41668;DHT22;27356;50.920;5.350;2023-04-25T12:10:16;12.50;86.70
41668;DHT22;27356;50.920;5.350;2023-04-25T12:12:43;12.90;79.80
41668;DHT22;27356;50.920;5.350;2023-04-25T12:17:42;13.20;84.30
41668;DHT22;27356;50.920;5.350;2023-04-25T12:20:09;13.50;82.40
41668;DHT22;27356;50.920;5.350;2023-04-25T12:22:35;13.60;83.60
41668;DHT22;27356;50.920;5.350;2023-04-25T12:25:02;13.40;81.00
41668;DHT22;27356;50.920;5.350;2023-04-25T12:27:30;13.20;84.30
41668;DHT22;27356;50.920;5.350;2023-04-25T12:29:57;13.10;84.80
41668;DHT22;27356;50.920;5.350;2023-04-25T12:32:23;12.90;89.20
41668;DHT22;27356;50.920;5.350;2023-04-25T12:34:49;12.70;90.70
41668;DHT22;27356;50.920;5.350;2023-04-25T12:37:15;12.30;91.20
41668;DHT22;27356;50.920;5.350;2023-04-25T12:39:41;12.10;90.80
41668;DHT22;27356;50.920;5.350;2023-04-25T12:42:07;11.90;91.80
41668;DHT22;27356;50.920;5.350;2023-04-25T12:44:39;11.90;92.40
41668;DHT22;27356;50.920;5.350;2023-04-25T12:47:05;12.00;91.40
41668;DHT22;27356;50.920;5.350;2023-04-25T12:49:31;11.60;91.30
41668;DHT22;27356;50.920;5.350;2023-04-25T12:51:57;11.80;91.90
41668;DHT22;27356;50.920;5.350;2023-04-25T12:54:23;12.10;91.40
41668;DHT22;27356;50.920;5.350;2023-04-25T12:56:49;12.40;91.70
41668;DHT22;27356;50.920;5.350;2023-04-25T12:59:16;12.30;90.60
41668;DHT22;27356;50.920;5.350;2023-04-25T13:01:41;12.40;90.80
41668;DHT22;27356;50.920;5.350;2023-04-25T13:04:08;12.70;90.90
41668;DHT22;27356;50.920;5.350;2023-04-25T13:06:33;13.20;90.00
41668;DHT22;27356;50.920;5.350;2023-04-25T13:08:59;13.60;86.70
41668;DHT22;27356;50.920;5.350;2023-04-25T13:11:25;13.90;86.50
41668;DHT22;27356;50.920;5.350;2023-04-25T13:13:51;13.60;86.00
41668;DHT22;27356;50.920;5.350;2023-04-25T13:16:17;13.40;84.20
41668;DHT22;27356;50.920;5.350;2023-04-25T13:18:44;13.10;85.70
41668;DHT22;27356;50.920;5.350;2023-04-25T13:21:10;13.10;84.30
41668;DHT22;27356;50.920;5.350;2023-04-25T13:23:36;13.10;86.20
41668;DHT22;27356;50.920;5.350;2023-04-25T13:26:02;13.10;85.50
41668;DHT22;27356;50.920;5.350;2023-04-25T13:28:28;13.40;84.70
41668;DHT22;27356;50.920;5.350;2023-04-25T13:30:54;13.60;84.70
41668;DHT22;27356;50.920;5.350;2023-04-25T13:33:20;13.50;84.10
41668;DHT22;27356;50.920;5.350;2023-04-25T13:35:48;13.50;87.90
41668;DHT22;27356;50.920;5.350;2023-04-25T13:38:23;13.70;88.50
41668;DHT22;27356;50.920;5.350;2023-04-25T13:40:50;13.70;87.60
41668;DHT22;27356;50.920;5.350;2023-04-25T13:43:18;13.70;88.60
41668;DHT22;27356;50.920;5.350;2023-04-25T13:45:44;13.80;88.00
41668;DHT22;27356;50.920;5.350;2023-04-25T13:48:10;13.70;85.90
41668;DHT22;27356;50.920;5.350;2023-04-25T13:50:36;13.90;86.00
41668;DHT22;27356;50.920;5.350;2023-04-25T13:53:01;14.00;85.60
41668;DHT22;27356;50.920;5.350;2023-04-25T13:55:27;14.00;85.30
41668;DHT22;27356;50.920;5.350;2023-04-25T13:57:53;14.20;84.10
41668;DHT22;27356;50.920;5.350;2023-04-25T14:00:18;14.20;84.10
41668;DHT22;27356;50.920;5.350;2023-04-25T14:02:45;14.10;85.60
41668;DHT22;27356;50.920;5.350;2023-04-25T14:05:11;14.30;83.90
41668;DHT22;27356;50.920;5.350;2023-04-25T14:07:36;14.20;84.40
41668;DHT22;27356;50.920;5.350;2023-04-25T14:10:03;13.80;81.10
41668;DHT22;27356;50.920;5.350;2023-04-25T14:12:30;13.70;81.20
41668;DHT22;27356;50.920;5.350;2023-04-25T14:14:56;13.60;81.80
41668;DHT22;27356;50.920;5.350;2023-04-25T14:17:21;13.50;84.00
41668;DHT22;27356;50.920;5.350;2023-04-25T14:19:47;13.20;86.30
41668;DHT22;27356;50.920;5.350;2023-04-25T14:22:14;13.10;85.10
41668;DHT22;27356;50.920;5.350;2023-04-25T14:24:40;12.90;85.30
41668;DHT22;27356;50.920;5.350;2023-04-25T14:27:06;12.90;88.20
41668;DHT22;27356;50.920;5.350;2023-04-25T14:29:32;12.90;87.40
41668;DHT22;27356;50.920;5.350;2023-04-25T14:31:57;12.90;85.30
41668;DHT22;27356;50.920;5.350;2023-04-25T14:34:24;12.80;84.80
41668;DHT22;27356;50.920;5.350;2023-04-25T14:36:51;12.90;84.40
41668;DHT22;27356;50.920;5.350;2023-04-25T14:39:17;12.90;85.90
41668;DHT22;27356;50.920;5.350;2023-04-25T14:41:44;12.80;83.50
41668;DHT22;27356;50.920;5.350;2023-04-25T14:44:09;12.90;83.90
41668;DHT22;27356;50.920;5.350;2023-04-25T14:46:36;12.70;82.10
41668;DHT22;27356;50.920;5.350;2023-04-25T14:49:02;12.70;81.90
41668;DHT22;27356;50.920;5.350;2023-04-25T14:51:28;12.50;83.50
41668;DHT22;27356;50.920;5.350;2023-04-25T14:53:56;12.60;86.50
41668;DHT22;27356;50.920;5.350;2023-04-25T14:56:22;12.90;85.50
41668;DHT22;27356;50.920;5.350;2023-04-25T14:58:48;12.80;84.20
41668;DHT22;27356;50.920;5.350;2023-04-25T15:01:14;13.00;85.30
41668;DHT22;27356;50.920;5.350;2023-04-25T15:03:42;13.20;86.60
41668;DHT22;27356;50.920;5.350;2023-04-25T15:06:08;13.20;83.00
41668;DHT22;27356;50.920;5.350;2023-04-25T15:08:34;13.30;83.10
41668;DHT22;27356;50.920;5.350;2023-04-25T15:11:01;13.50;84.80
41668;DHT22;27356;50.920;5.350;2023-04-25T15:13:27;13.40;84.70
41668;DHT22;27356;50.920;5.350;2023-04-25T15:15:53;13.70;83.50
41668;DHT22;27356;50.920;5.350;2023-04-25T15:18:22;13.30;83.30
41668;DHT22;27356;50.920;5.350;2023-04-25T15:20:53;13.00;84.70
41668;DHT22;27356;50.920;5.350;2023-04-25T15:23:19;13.00;84.20
41668;DHT22;27356;50.920;5.350;2023-04-25T15:25:46;13.00;82.80
41668;DHT22;27356;50.920;5.350;2023-04-25T15:28:12;13.00;83.30
41668;DHT22;27356;50.920;5.350;2023-04-25T15:30:42;13.10;82.90
41668;DHT22;27356;50.920;5.350;2023-04-25T15:33:08;13.10;83.30
41668;DHT22;27356;50.920;5.350;2023-04-25T15:35:34;12.80;84.20
41668;DHT22;27356;50.920;5.350;2023-04-25T15:38:00;12.90;85.20
41668;DHT22;27356;50.920;5.350;2023-04-25T15:40:26;12.80;86.10
41668;DHT22;27356;50.920;5.350;2023-04-25T15:42:52;12.80;86.50